sensor_id;sensor_type;location;lat;lon;timestamp;P1;durP1;ratioP1;P2;durP2;ratioP2
75680;SDS011;64294;49.176;16.626;2023-01-25T00:02:01;18.17;;;8.80;;
75680;SDS011;64294;49.176;16.626;2023-01-25T00:04:27;17.13;;;8.65;;
75680;SDS011;64294;49.176;16.626;2023-01-25T00:06:53;18.15;;;8.30;;
75680;SDS011;64294;49.176;16.626;2023-01-25T00:09:18;18.58;;;9.02;;
75680;SDS011;64294;49.176;16.626;2023-01-25T00:11:44;16.90;;;8.18;;
75680;SDS011;64294;49.176;16.626;2023-01-25T00:14:10;18.08;;;8.30;;
75680;SDS011;64294;49.176;16.626;2023-01-25T00:16:37;17.67;;;8.90;;
75680;SDS011;64294;49.176;16.626;2023-01-25T00:19:03;14.85;;;7.53;;
75680;SDS011;64294;49.176;16.626;2023-01-25T00:21:30;19.80;;;8.30;;
75680;SDS011;64294;49.176;16.626;2023-01-25T00:23:55;17.70;;;8.05;;
75680;SDS011;64294;49.176;16.626;2023-01-25T00:26:20;19.88;;;8.38;;
75680;SDS011;64294;49.176;16.626;2023-01-25T00:28:52;14.82;;;7.22;;
75680;SDS011;64294;49.176;16.626;2023-01-25T00:39:36;17.15;;;9.02;;
75680;SDS011;64294;49.176;16.626;2023-01-25T00:42:03;16.38;;;8.40;;
75680;SDS011;64294;49.176;16.626;2023-01-25T00:44:28;16.55;;;8.05;;
75680;SDS011;64294;49.176;16.626;2023-01-25T00:46:54;16.42;;;8.13;;
75680;SDS011;64294;49.176;16.626;2023-01-25T00:49:20;17.30;;;8.10;;
75680;SDS011;64294;49.176;16.626;2023-01-25T00:51:48;15.57;;;8.38;;
75680;SDS011;64294;49.176;16.626;2023-01-25T00:54:14;14.15;;;7.70;;
75680;SDS011;64294;49.176;16.626;2023-01-25T00:56:40;15.50;;;7.82;;
75680;SDS011;64294;49.176;16.626;2023-01-25T00:59:05;17.27;;;8.10;;
75680;SDS011;64294;49.176;16.626;2023-01-25T01:01:31;14.93;;;7.88;;
75680;SDS011;64294;49.176;16.626;2023-01-25T01:03:56;16.00;;;8.02;;
75680;SDS011;64294;49.176;16.626;2023-01-25T01:06:22;16.13;;;7.85;;
75680;SDS011;64294;49.176;16.626;2023-01-25T01:08:47;13.32;;;6.80;;
75680;SDS011;64294;49.176;16.626;2023-01-25T01:11:12;15.13;;;7.47;;
75680;SDS011;64294;49.176;16.626;2023-01-25T01:13:38;16.42;;;7.93;;
75680;SDS011;64294;49.176;16.626;2023-01-25T01:16:05;19.08;;;7.78;;
75680;SDS011;64294;49.176;16.626;2023-01-25T01:18:39;17.35;;;8.05;;
75680;SDS011;64294;49.176;16.626;2023-01-25T01:21:06;17.17;;;7.80;;
75680;SDS011;64294;49.176;16.626;2023-01-25T01:23:32;16.33;;;7.57;;
75680;SDS011;64294;49.176;16.626;2023-01-25T01:25:59;13.70;;;6.78;;
75680;SDS011;64294;49.176;16.626;2023-01-25T01:28:29;15.52;;;7.80;;
75680;SDS011;64294;49.176;16.626;2023-01-25T01:31:02;15.32;;;7.70;;
75680;SDS011;64294;49.176;16.626;2023-01-25T01:33:29;14.45;;;7.03;;
75680;SDS011;64294;49.176;16.626;2023-01-25T01:35:55;15.45;;;7.90;;
75680;SDS011;64294;49.176;16.626;2023-01-25T01:38:20;16.95;;;7.65;;
75680;SDS011;64294;49.176;16.626;2023-01-25T01:40:46;16.92;;;8.20;;
75680;SDS011;64294;49.176;16.626;2023-01-25T01:43:19;18.42;;;8.13;;
75680;SDS011;64294;49.176;16.626;2023-01-25T01:51:16;16.95;;;8.13;;
75680;SDS011;64294;49.176;16.626;2023-01-25T01:54:04;13.68;;;7.00;;
75680;SDS011;64294;49.176;16.626;2023-01-25T02:02:18;18.55;;;8.60;;
75680;SDS011;64294;49.176;16.626;2023-01-25T02:04:45;15.18;;;7.70;;
75680;SDS011;64294;49.176;16.626;2023-01-25T02:07:16;15.52;;;7.68;;
75680;SDS011;64294;49.176;16.626;2023-01-25T02:09:47;15.70;;;8.32;;
75680;SDS011;64294;49.176;16.626;2023-01-25T02:12:14;19.10;;;8.52;;
75680;SDS011;64294;49.176;16.626;2023-01-25T02:14:43;18.13;;;8.77;;
75680;SDS011;64294;49.176;16.626;2023-01-25T02:17:13;16.80;;;8.55;;
75680;SDS011;64294;49.176;16.626;2023-01-25T02:22:33;17.27;;;8.48;;
75680;SDS011;64294;49.176;16.626;2023-01-25T02:25:18;19.27;;;8.07;;
75680;SDS011;64294;49.176;16.626;2023-01-25T02:27:45;16.23;;;8.38;;
75680;SDS011;64294;49.176;16.626;2023-01-25T02:30:17;17.15;;;8.13;;
75680;SDS011;64294;49.176;16.626;2023-01-25T02:32:42;16.98;;;8.98;;
75680;SDS011;64294;49.176;16.626;2023-01-25T02:35:11;15.27;;;7.38;;
75680;SDS011;64294;49.176;16.626;2023-01-25T02:37:43;15.70;;;7.53;;
75680;SDS011;64294;49.176;16.626;2023-01-25T02:40:09;16.00;;;8.02;;
75680;SDS011;64294;49.176;16.626;2023-01-25T02:42:35;17.30;;;8.70;;
75680;SDS011;64294;49.176;16.626;2023-01-25T02:45:00;19.20;;;9.18;;
75680;SDS011;64294;49.176;16.626;2023-01-25T02:47:27;20.38;;;8.85;;
75680;SDS011;64294;49.176;16.626;2023-01-25T02:49:52;16.88;;;8.18;;
75680;SDS011;64294;49.176;16.626;2023-01-25T02:52:17;16.02;;;7.47;;
75680;SDS011;64294;49.176;16.626;2023-01-25T02:54:43;14.38;;;6.85;;
75680;SDS011;64294;49.176;16.626;2023-01-25T02:57:09;14.00;;;7.68;;
75680;SDS011;64294;49.176;16.626;2023-01-25T02:59:34;16.40;;;7.45;;
75680;SDS011;64294;49.176;16.626;2023-01-25T03:02:00;15.93;;;7.63;;
75680;SDS011;64294;49.176;16.626;2023-01-25T03:04:26;16.77;;;8.07;;
75680;SDS011;64294;49.176;16.626;2023-01-25T03:06:51;16.13;;;8.38;;
75680;SDS011;64294;49.176;16.626;2023-01-25T03:09:17;14.48;;;8.05;;
75680;SDS011;64294;49.176;16.626;2023-01-25T03:11:42;17.65;;;8.23;;
75680;SDS011;64294;49.176;16.626;2023-01-25T03:14:08;15.07;;;7.57;;
75680;SDS011;64294;49.176;16.626;2023-01-25T03:16:33;15.57;;;7.68;;
75680;SDS011;64294;49.176;16.626;2023-01-25T03:18:58;13.75;;;7.38;;
75680;SDS011;64294;49.176;16.626;2023-01-25T03:21:24;15.45;;;7.50;;
75680;SDS011;64294;49.176;16.626;2023-01-25T03:23:56;16.90;;;8.07;;
75680;SDS011;64294;49.176;16.626;2023-01-25T03:26:23;15.45;;;7.97;;
75680;SDS011;64294;49.176;16.626;2023-01-25T03:28:49;16.35;;;8.18;;
75680;SDS011;64294;49.176;16.626;2023-01-25T03:31:15;17.77;;;8.02;;
75680;SDS011;64294;49.176;16.626;2023-01-25T03:33:42;14.52;;;7.70;;
75680;SDS011;64294;49.176;16.626;2023-01-25T03:36:08;15.20;;;7.60;;
75680;SDS011;64294;49.176;16.626;2023-01-25T03:38:34;14.65;;;7.18;;
75680;SDS011;64294;49.176;16.626;2023-01-25T03:41:00;14.32;;;6.63;;
75680;SDS011;64294;49.176;16.626;2023-01-25T03:43:25;13.30;;;6.68;;
75680;SDS011;64294;49.176;16.626;2023-01-25T03:45:52;14.40;;;7.30;;
75680;SDS011;64294;49.176;16.626;2023-01-25T03:48:19;14.65;;;7.28;;
75680;SDS011;64294;49.176;16.626;2023-01-25T03:50:51;15.95;;;7.95;;
75680;SDS011;64294;49.176;16.626;2023-01-25T03:53:19;15.75;;;8.15;;
75680;SDS011;64294;49.176;16.626;2023-01-25T03:58:19;17.48;;;7.70;;
75680;SDS011;64294;49.176;16.626;2023-01-25T04:00:44;16.00;;;8.82;;
75680;SDS011;64294;49.176;16.626;2023-01-25T04:03:10;15.32;;;7.82;;
75680;SDS011;64294;49.176;16.626;2023-01-25T04:05:35;14.38;;;7.75;;
75680;SDS011;64294;49.176;16.626;2023-01-25T04:08:00;15.75;;;7.80;;
75680;SDS011;64294;49.176;16.626;2023-01-25T04:10:26;15.77;;;8.02;;
75680;SDS011;64294;49.176;16.626;2023-01-25T04:12:51;15.60;;;7.30;;
75680;SDS011;64294;49.176;16.626;2023-01-25T04:15:16;19.65;;;8.02;;
75680;SDS011;64294;49.176;16.626;2023-01-25T04:17:42;13.40;;;7.38;;
75680;SDS011;64294;49.176;16.626;2023-01-25T04:20:07;15.05;;;7.20;;
75680;SDS011;64294;49.176;16.626;2023-01-25T04:22:33;14.45;;;7.50;;
75680;SDS011;64294;49.176;16.626;2023-01-25T04:24:59;14.65;;;7.75;;
75680;SDS011;64294;49.176;16.626;2023-01-25T04:27:24;15.57;;;7.30;;
75680;SDS011;64294;49.176;16.626;2023-01-25T04:29:49;18.45;;;8.38;;
75680;SDS011;64294;49.176;16.626;2023-01-25T04:32:15;17.75;;;8.70;;
75680;SDS011;64294;49.176;16.626;2023-01-25T04:34:40;25.70;;;9.35;;
75680;SDS011;64294;49.176;16.626;2023-01-25T04:37:06;20.02;;;9.20;;
75680;SDS011;64294;49.176;16.626;2023-01-25T04:39:31;15.48;;;7.55;;
75680;SDS011;64294;49.176;16.626;2023-01-25T04:41:56;16.15;;;7.80;;
75680;SDS011;64294;49.176;16.626;2023-01-25T04:44:22;16.77;;;7.60;;
75680;SDS011;64294;49.176;16.626;2023-01-25T04:46:47;15.30;;;7.55;;
75680;SDS011;64294;49.176;16.626;2023-01-25T04:49:13;15.10;;;8.07;;
75680;SDS011;64294;49.176;16.626;2023-01-25T04:51:38;17.27;;;7.57;;
75680;SDS011;64294;49.176;16.626;2023-01-25T04:54:04;14.88;;;7.78;;
75680;SDS011;64294;49.176;16.626;2023-01-25T04:56:29;16.95;;;8.35;;
75680;SDS011;64294;49.176;16.626;2023-01-25T04:58:55;16.02;;;7.28;;
75680;SDS011;64294;49.176;16.626;2023-01-25T05:01:20;16.42;;;8.38;;
75680;SDS011;64294;49.176;16.626;2023-01-25T05:03:45;16.98;;;8.40;;
75680;SDS011;64294;49.176;16.626;2023-01-25T05:06:11;14.98;;;8.20;;
75680;SDS011;64294;49.176;16.626;2023-01-25T05:08:36;14.88;;;7.75;;
75680;SDS011;64294;49.176;16.626;2023-01-25T05:11:01;17.60;;;8.00;;
75680;SDS011;64294;49.176;16.626;2023-01-25T05:13:27;21.80;;;8.43;;
75680;SDS011;64294;49.176;16.626;2023-01-25T05:15:54;13.90;;;7.45;;
75680;SDS011;64294;49.176;16.626;2023-01-25T05:18:20;16.15;;;8.25;;
75680;SDS011;64294;49.176;16.626;2023-01-25T05:20:45;17.50;;;7.85;;
75680;SDS011;64294;49.176;16.626;2023-01-25T05:23:11;17.73;;;8.90;;
75680;SDS011;64294;49.176;16.626;2023-01-25T05:25:36;18.00;;;8.32;;
75680;SDS011;64294;49.176;16.626;2023-01-25T05:28:20;18.05;;;9.00;;
75680;SDS011;64294;49.176;16.626;2023-01-25T05:30:45;18.52;;;8.30;;
75680;SDS011;64294;49.176;16.626;2023-01-25T05:33:11;17.95;;;8.50;;
75680;SDS011;64294;49.176;16.626;2023-01-25T05:35:36;19.42;;;8.60;;
75680;SDS011;64294;49.176;16.626;2023-01-25T05:38:02;14.57;;;7.85;;
75680;SDS011;64294;49.176;16.626;2023-01-25T05:40:27;17.80;;;8.68;;
75680;SDS011;64294;49.176;16.626;2023-01-25T05:42:53;18.23;;;8.00;;
75680;SDS011;64294;49.176;16.626;2023-01-25T05:45:19;17.52;;;8.50;;
75680;SDS011;64294;49.176;16.626;2023-01-25T05:47:45;14.65;;;7.80;;
75680;SDS011;64294;49.176;16.626;2023-01-25T05:50:10;14.40;;;7.80;;
75680;SDS011;64294;49.176;16.626;2023-01-25T05:52:36;17.33;;;8.77;;
75680;SDS011;64294;49.176;16.626;2023-01-25T05:55:01;14.85;;;7.57;;
75680;SDS011;64294;49.176;16.626;2023-01-25T05:57:26;16.30;;;7.72;;
75680;SDS011;64294;49.176;16.626;2023-01-25T05:59:52;18.67;;;8.43;;
75680;SDS011;64294;49.176;16.626;2023-01-25T06:02:18;18.30;;;8.40;;
75680;SDS011;64294;49.176;16.626;2023-01-25T06:04:46;18.80;;;8.85;;
75680;SDS011;64294;49.176;16.626;2023-01-25T06:07:12;21.10;;;10.00;;
75680;SDS011;64294;49.176;16.626;2023-01-25T06:09:37;18.75;;;8.50;;
75680;SDS011;64294;49.176;16.626;2023-01-25T06:12:02;18.27;;;8.75;;
75680;SDS011;64294;49.176;16.626;2023-01-25T06:14:30;15.90;;;8.55;;
75680;SDS011;64294;49.176;16.626;2023-01-25T06:16:55;15.13;;;7.97;;
75680;SDS011;64294;49.176;16.626;2023-01-25T06:19:20;16.17;;;7.75;;
75680;SDS011;64294;49.176;16.626;2023-01-25T06:21:46;14.80;;;8.18;;
75680;SDS011;64294;49.176;16.626;2023-01-25T06:24:14;19.65;;;8.40;;
75680;SDS011;64294;49.176;16.626;2023-01-25T06:26:39;16.88;;;8.88;;
75680;SDS011;64294;49.176;16.626;2023-01-25T06:29:05;16.00;;;8.40;;
75680;SDS011;64294;49.176;16.626;2023-01-25T06:31:30;14.95;;;7.65;;
75680;SDS011;64294;49.176;16.626;2023-01-25T06:33:56;17.83;;;8.68;;
75680;SDS011;64294;49.176;16.626;2023-01-25T06:36:24;18.67;;;8.95;;
75680;SDS011;64294;49.176;16.626;2023-01-25T06:38:50;20.70;;;9.52;;
75680;SDS011;64294;49.176;16.626;2023-01-25T06:41:16;17.52;;;8.85;;
75680;SDS011;64294;49.176;16.626;2023-01-25T06:43:42;17.15;;;9.00;;
75680;SDS011;64294;49.176;16.626;2023-01-25T06:46:08;16.73;;;8.07;;
75680;SDS011;64294;49.176;16.626;2023-01-25T06:48:36;18.00;;;8.50;;
75680;SDS011;64294;49.176;16.626;2023-01-25T06:51:05;19.33;;;9.02;;
75680;SDS011;64294;49.176;16.626;2023-01-25T06:53:34;19.35;;;9.23;;
75680;SDS011;64294;49.176;16.626;2023-01-25T06:56:14;18.50;;;8.98;;
75680;SDS011;64294;49.176;16.626;2023-01-25T06:58:45;15.57;;;7.68;;
75680;SDS011;64294;49.176;16.626;2023-01-25T07:01:12;17.00;;;7.88;;
75680;SDS011;64294;49.176;16.626;2023-01-25T07:03:42;16.45;;;8.70;;
75680;SDS011;64294;49.176;16.626;2023-01-25T07:06:08;17.52;;;8.85;;
75680;SDS011;64294;49.176;16.626;2023-01-25T07:08:35;16.65;;;8.93;;
75680;SDS011;64294;49.176;16.626;2023-01-25T07:11:02;23.00;;;10.15;;
75680;SDS011;64294;49.176;16.626;2023-01-25T07:13:33;15.88;;;8.57;;
75680;SDS011;64294;49.176;16.626;2023-01-25T07:15:59;16.27;;;8.20;;
75680;SDS011;64294;49.176;16.626;2023-01-25T07:18:27;19.33;;;8.18;;
75680;SDS011;64294;49.176;16.626;2023-01-25T07:20:54;15.88;;;7.95;;
75680;SDS011;64294;49.176;16.626;2023-01-25T07:23:26;18.58;;;9.48;;
75680;SDS011;64294;49.176;16.626;2023-01-25T07:25:51;17.27;;;9.15;;
75680;SDS011;64294;49.176;16.626;2023-01-25T07:28:17;19.20;;;8.80;;
75680;SDS011;64294;49.176;16.626;2023-01-25T07:30:42;18.42;;;8.95;;
75680;SDS011;64294;49.176;16.626;2023-01-25T07:33:08;18.17;;;8.80;;
75680;SDS011;64294;49.176;16.626;2023-01-25T07:35:34;20.30;;;8.63;;
75680;SDS011;64294;49.176;16.626;2023-01-25T07:38:00;15.85;;;8.18;;
75680;SDS011;64294;49.176;16.626;2023-01-25T07:40:25;21.10;;;8.65;;
75680;SDS011;64294;49.176;16.626;2023-01-25T07:42:51;15.02;;;8.07;;
75680;SDS011;64294;49.176;16.626;2023-01-25T07:45:17;19.00;;;9.40;;
75680;SDS011;64294;49.176;16.626;2023-01-25T07:47:43;15.25;;;7.85;;
75680;SDS011;64294;49.176;16.626;2023-01-25T07:50:08;16.42;;;8.25;;
75680;SDS011;64294;49.176;16.626;2023-01-25T07:52:34;19.23;;;8.70;;
75680;SDS011;64294;49.176;16.626;2023-01-25T07:55:00;20.08;;;9.40;;
75680;SDS011;64294;49.176;16.626;2023-01-25T07:57:25;20.65;;;10.57;;
75680;SDS011;64294;49.176;16.626;2023-01-25T07:59:52;20.98;;;10.95;;
75680;SDS011;64294;49.176;16.626;2023-01-25T08:02:18;22.15;;;10.45;;
75680;SDS011;64294;49.176;16.626;2023-01-25T08:04:44;22.42;;;8.70;;
75680;SDS011;64294;49.176;16.626;2023-01-25T08:07:10;19.60;;;9.43;;
75680;SDS011;64294;49.176;16.626;2023-01-25T08:09:35;18.75;;;9.05;;
75680;SDS011;64294;49.176;16.626;2023-01-25T08:12:01;18.58;;;9.00;;
75680;SDS011;64294;49.176;16.626;2023-01-25T08:14:26;18.90;;;9.25;;
75680;SDS011;64294;49.176;16.626;2023-01-25T08:16:52;18.60;;;9.68;;
75680;SDS011;64294;49.176;16.626;2023-01-25T08:19:17;20.13;;;9.25;;
75680;SDS011;64294;49.176;16.626;2023-01-25T08:21:44;20.05;;;8.68;;
75680;SDS011;64294;49.176;16.626;2023-01-25T08:24:09;20.65;;;9.18;;
75680;SDS011;64294;49.176;16.626;2023-01-25T08:26:35;15.93;;;9.15;;
75680;SDS011;64294;49.176;16.626;2023-01-25T08:29:02;17.52;;;9.65;;
75680;SDS011;64294;49.176;16.626;2023-01-25T08:31:29;20.20;;;9.57;;
75680;SDS011;64294;49.176;16.626;2023-01-25T08:33:56;18.40;;;8.90;;
75680;SDS011;64294;49.176;16.626;2023-01-25T08:36:22;18.50;;;9.30;;
75680;SDS011;64294;49.176;16.626;2023-01-25T08:38:51;20.88;;;9.57;;
75680;SDS011;64294;49.176;16.626;2023-01-25T08:41:21;17.33;;;8.45;;
75680;SDS011;64294;49.176;16.626;2023-01-25T08:43:47;20.75;;;9.48;;
75680;SDS011;64294;49.176;16.626;2023-01-25T08:46:13;17.58;;;9.48;;
75680;SDS011;64294;49.176;16.626;2023-01-25T08:48:39;19.38;;;9.07;;
75680;SDS011;64294;49.176;16.626;2023-01-25T08:51:08;19.58;;;9.38;;
75680;SDS011;64294;49.176;16.626;2023-01-25T08:53:36;16.30;;;9.00;;
75680;SDS011;64294;49.176;16.626;2023-01-25T08:56:05;21.00;;;9.18;;
75680;SDS011;64294;49.176;16.626;2023-01-25T08:58:32;15.95;;;8.80;;
75680;SDS011;64294;49.176;16.626;2023-01-25T09:01:02;21.02;;;9.27;;
75680;SDS011;64294;49.176;16.626;2023-01-25T09:03:29;18.02;;;9.20;;
75680;SDS011;64294;49.176;16.626;2023-01-25T09:05:54;18.05;;;8.90;;
75680;SDS011;64294;49.176;16.626;2023-01-25T09:08:20;18.67;;;9.07;;
75680;SDS011;64294;49.176;16.626;2023-01-25T09:10:45;19.80;;;9.45;;
75680;SDS011;64294;49.176;16.626;2023-01-25T09:13:11;20.55;;;9.40;;
75680;SDS011;64294;49.176;16.626;2023-01-25T09:15:36;22.60;;;9.82;;
75680;SDS011;64294;49.176;16.626;2023-01-25T09:18:02;23.48;;;9.63;;
75680;SDS011;64294;49.176;16.626;2023-01-25T09:20:28;18.27;;;9.20;;
75680;SDS011;64294;49.176;16.626;2023-01-25T09:22:53;18.48;;;9.63;;
75680;SDS011;64294;49.176;16.626;2023-01-25T09:25:19;20.30;;;9.40;;
75680;SDS011;64294;49.176;16.626;2023-01-25T09:27:47;18.17;;;9.55;;
75680;SDS011;64294;49.176;16.626;2023-01-25T09:30:14;27.73;;;10.02;;
75680;SDS011;64294;49.176;16.626;2023-01-25T09:32:40;23.33;;;9.70;;
75680;SDS011;64294;49.176;16.626;2023-01-25T09:35:05;20.45;;;10.15;;
75680;SDS011;64294;49.176;16.626;2023-01-25T09:37:31;18.15;;;9.38;;
75680;SDS011;64294;49.176;16.626;2023-01-25T09:39:56;20.25;;;9.70;;
75680;SDS011;64294;49.176;16.626;2023-01-25T09:55:55;21.45;;;9.32;;
75680;SDS011;64294;49.176;16.626;2023-01-25T09:58:28;19.90;;;9.32;;
75680;SDS011;64294;49.176;16.626;2023-01-25T10:03:52;21.30;;;8.33;;
75680;SDS011;64294;49.176;16.626;2023-01-25T10:06:18;16.65;;;8.57;;
75680;SDS011;64294;49.176;16.626;2023-01-25T10:08:52;19.75;;;9.75;;
75680;SDS011;64294;49.176;16.626;2023-01-25T10:11:40;19.73;;;9.23;;
75680;SDS011;64294;49.176;16.626;2023-01-25T10:14:13;20.02;;;8.77;;
75680;SDS011;64294;49.176;16.626;2023-01-25T10:22:00;19.70;;;9.10;;
75680;SDS011;64294;49.176;16.626;2023-01-25T10:24:33;17.60;;;9.00;;
75680;SDS011;64294;49.176;16.626;2023-01-25T10:27:22;17.38;;;8.77;;
75680;SDS011;64294;49.176;16.626;2023-01-25T10:29:50;17.38;;;8.55;;
75680;SDS011;64294;49.176;16.626;2023-01-25T10:32:28;17.65;;;8.57;;
75680;SDS011;64294;49.176;16.626;2023-01-25T10:35:10;21.30;;;9.25;;
75680;SDS011;64294;49.176;16.626;2023-01-25T10:37:40;15.90;;;7.95;;
75680;SDS011;64294;49.176;16.626;2023-01-25T10:40:21;16.10;;;8.10;;
75680;SDS011;64294;49.176;16.626;2023-01-25T10:42:50;19.97;;;9.33;;
75680;SDS011;64294;49.176;16.626;2023-01-25T10:45:22;20.75;;;9.38;;
75680;SDS011;64294;49.176;16.626;2023-01-25T10:47:48;20.88;;;10.50;;
75680;SDS011;64294;49.176;16.626;2023-01-25T10:55:57;19.08;;;9.02;;
75680;SDS011;64294;49.176;16.626;2023-01-25T10:58:43;17.65;;;9.00;;
75680;SDS011;64294;49.176;16.626;2023-01-25T11:01:12;25.65;;;10.18;;
75680;SDS011;64294;49.176;16.626;2023-01-25T11:03:49;20.00;;;9.48;;
75680;SDS011;64294;49.176;16.626;2023-01-25T11:06:15;16.65;;;8.77;;
75680;SDS011;64294;49.176;16.626;2023-01-25T11:08:53;18.55;;;9.65;;
75680;SDS011;64294;49.176;16.626;2023-01-25T11:13:55;20.40;;;10.30;;
75680;SDS011;64294;49.176;16.626;2023-01-25T11:16:37;22.33;;;10.95;;
75680;SDS011;64294;49.176;16.626;2023-01-25T11:19:22;23.48;;;10.32;;
75680;SDS011;64294;49.176;16.626;2023-01-25T11:22:20;19.55;;;10.32;;
75680;SDS011;64294;49.176;16.626;2023-01-25T11:24:48;20.70;;;9.10;;
75680;SDS011;64294;49.176;16.626;2023-01-25T11:32:33;20.60;;;9.73;;
75680;SDS011;64294;49.176;16.626;2023-01-25T11:34:58;21.45;;;10.18;;
75680;SDS011;64294;49.176;16.626;2023-01-25T11:43:16;19.05;;;8.88;;
75680;SDS011;64294;49.176;16.626;2023-01-25T11:45:51;19.77;;;9.27;;
75680;SDS011;64294;49.176;16.626;2023-01-25T11:51:07;24.45;;;9.85;;
75680;SDS011;64294;49.176;16.626;2023-01-25T11:56:48;22.90;;;9.73;;
75680;SDS011;64294;49.176;16.626;2023-01-25T12:17:49;22.70;;;10.32;;
75680;SDS011;64294;49.176;16.626;2023-01-25T12:23:34;21.45;;;10.73;;
75680;SDS011;64294;49.176;16.626;2023-01-25T12:34:30;27.00;;;11.20;;
75680;SDS011;64294;49.176;16.626;2023-01-25T12:37:03;28.50;;;11.88;;
75680;SDS011;64294;49.176;16.626;2023-01-25T12:39:36;23.67;;;10.88;;
75680;SDS011;64294;49.176;16.626;2023-01-25T12:42:11;24.35;;;10.90;;
75680;SDS011;64294;49.176;16.626;2023-01-25T12:45:03;26.73;;;11.15;;
75680;SDS011;64294;49.176;16.626;2023-01-25T12:48:02;24.20;;;11.25;;
75680;SDS011;64294;49.176;16.626;2023-01-25T12:50:44;25.67;;;11.40;;
75680;SDS011;64294;49.176;16.626;2023-01-25T12:53:25;23.40;;;11.15;;
75680;SDS011;64294;49.176;16.626;2023-01-25T12:55:54;24.20;;;10.32;;
75680;SDS011;64294;49.176;16.626;2023-01-25T13:01:10;24.08;;;10.65;;
75680;SDS011;64294;49.176;16.626;2023-01-25T13:11:41;25.33;;;10.82;;
75680;SDS011;64294;49.176;16.626;2023-01-25T13:16:48;24.63;;;10.95;;
75680;SDS011;64294;49.176;16.626;2023-01-25T13:22:02;22.02;;;11.25;;
75680;SDS011;64294;49.176;16.626;2023-01-25T13:24:28;22.92;;;10.50;;
75680;SDS011;64294;49.176;16.626;2023-01-25T13:27:24;23.30;;;10.55;;
75680;SDS011;64294;49.176;16.626;2023-01-25T13:30:23;24.05;;;10.15;;
75680;SDS011;64294;49.176;16.626;2023-01-25T13:32:56;20.08;;;9.98;;
75680;SDS011;64294;49.176;16.626;2023-01-25T13:38:27;23.95;;;11.10;;
75680;SDS011;64294;49.176;16.626;2023-01-25T13:41:02;21.77;;;10.38;;
75680;SDS011;64294;49.176;16.626;2023-01-25T13:43:41;21.33;;;10.23;;
75680;SDS011;64294;49.176;16.626;2023-01-25T13:46:10;22.65;;;10.93;;
75680;SDS011;64294;49.176;16.626;2023-01-25T13:48:46;22.75;;;10.00;;
75680;SDS011;64294;49.176;16.626;2023-01-25T13:51:18;20.17;;;9.65;;
75680;SDS011;64294;49.176;16.626;2023-01-25T13:53:53;18.92;;;9.05;;
75680;SDS011;64294;49.176;16.626;2023-01-25T13:56:24;20.13;;;10.25;;
75680;SDS011;64294;49.176;16.626;2023-01-25T13:58:52;19.58;;;10.00;;
75680;SDS011;64294;49.176;16.626;2023-01-25T14:01:18;21.50;;;10.05;;
75680;SDS011;64294;49.176;16.626;2023-01-25T14:03:57;17.48;;;9.40;;
75680;SDS011;64294;49.176;16.626;2023-01-25T14:06:27;20.60;;;9.63;;
75680;SDS011;64294;49.176;16.626;2023-01-25T14:08:55;18.73;;;9.07;;
75680;SDS011;64294;49.176;16.626;2023-01-25T14:11:23;22.67;;;10.25;;
75680;SDS011;64294;49.176;16.626;2023-01-25T14:16:27;22.27;;;10.50;;
75680;SDS011;64294;49.176;16.626;2023-01-25T14:18:57;25.55;;;10.73;;
75680;SDS011;64294;49.176;16.626;2023-01-25T14:21:40;25.23;;;10.40;;
75680;SDS011;64294;49.176;16.626;2023-01-25T14:24:08;19.60;;;10.15;;
75680;SDS011;64294;49.176;16.626;2023-01-25T14:26:36;21.30;;;10.25;;
75680;SDS011;64294;49.176;16.626;2023-01-25T14:29:11;20.63;;;10.10;;
75680;SDS011;64294;49.176;16.626;2023-01-25T14:31:42;22.20;;;9.50;;
75680;SDS011;64294;49.176;16.626;2023-01-25T14:34:15;23.77;;;10.25;;
75680;SDS011;64294;49.176;16.626;2023-01-25T14:36:42;20.50;;;9.63;;
75680;SDS011;64294;49.176;16.626;2023-01-25T14:39:40;19.63;;;9.07;;
75680;SDS011;64294;49.176;16.626;2023-01-25T14:41:59;20.98;;;9.23;;
75680;SDS011;64294;49.176;16.626;2023-01-25T14:44:25;24.58;;;9.88;;
75680;SDS011;64294;49.176;16.626;2023-01-25T14:53:21;18.47;;;9.13;;
75680;SDS011;64294;49.176;16.626;2023-01-25T14:55:49;25.65;;;10.10;;
75680;SDS011;64294;49.176;16.626;2023-01-25T14:58:16;19.45;;;9.18;;
75680;SDS011;64294;49.176;16.626;2023-01-25T15:00:52;22.00;;;9.98;;
75680;SDS011;64294;49.176;16.626;2023-01-25T15:03:22;21.48;;;9.75;;
75680;SDS011;64294;49.176;16.626;2023-01-25T15:05:50;22.92;;;9.90;;
75680;SDS011;64294;49.176;16.626;2023-01-25T15:08:26;21.17;;;9.63;;
75680;SDS011;64294;49.176;16.626;2023-01-25T15:10:54;19.75;;;9.82;;
75680;SDS011;64294;49.176;16.626;2023-01-25T15:15:54;19.65;;;10.18;;
75680;SDS011;64294;49.176;16.626;2023-01-25T15:18:46;22.35;;;10.02;;
75680;SDS011;64294;49.176;16.626;2023-01-25T15:21:15;25.20;;;10.57;;
75680;SDS011;64294;49.176;16.626;2023-01-25T15:23:43;21.20;;;10.10;;
75680;SDS011;64294;49.176;16.626;2023-01-25T15:28:48;22.00;;;9.93;;
75680;SDS011;64294;49.176;16.626;2023-01-25T15:31:25;22.45;;;10.40;;
75680;SDS011;64294;49.176;16.626;2023-01-25T15:33:53;18.42;;;9.20;;
75680;SDS011;64294;49.176;16.626;2023-01-25T15:36:19;23.13;;;10.25;;
75680;SDS011;64294;49.176;16.626;2023-01-25T15:38:44;21.80;;;10.43;;
75680;SDS011;64294;49.176;16.626;2023-01-25T15:41:10;21.52;;;9.43;;
75680;SDS011;64294;49.176;16.626;2023-01-25T15:43:37;24.10;;;11.30;;
75680;SDS011;64294;49.176;16.626;2023-01-25T15:46:02;21.85;;;9.63;;
75680;SDS011;64294;49.176;16.626;2023-01-25T15:48:31;23.63;;;10.52;;
75680;SDS011;64294;49.176;16.626;2023-01-25T15:50:58;20.45;;;10.18;;
75680;SDS011;64294;49.176;16.626;2023-01-25T15:53:24;22.38;;;10.73;;
75680;SDS011;64294;49.176;16.626;2023-01-25T15:55:51;21.95;;;10.98;;
75680;SDS011;64294;49.176;16.626;2023-01-25T15:58:34;22.63;;;10.85;;
75680;SDS011;64294;49.176;16.626;2023-01-25T16:01:01;25.52;;;10.57;;
75680;SDS011;64294;49.176;16.626;2023-01-25T16:03:28;22.50;;;9.60;;
75680;SDS011;64294;49.176;16.626;2023-01-25T16:06:03;21.95;;;9.57;;
75680;SDS011;64294;49.176;16.626;2023-01-25T16:08:39;33.47;;;14.48;;
75680;SDS011;64294;49.176;16.626;2023-01-25T16:11:04;28.38;;;11.52;;
75680;SDS011;64294;49.176;16.626;2023-01-25T16:13:30;23.23;;;9.90;;
75680;SDS011;64294;49.176;16.626;2023-01-25T16:15:55;21.58;;;10.10;;
75680;SDS011;64294;49.176;16.626;2023-01-25T16:18:21;24.42;;;10.88;;
75680;SDS011;64294;49.176;16.626;2023-01-25T16:20:46;24.05;;;10.02;;
75680;SDS011;64294;49.176;16.626;2023-01-25T16:23:15;24.08;;;10.82;;
75680;SDS011;64294;49.176;16.626;2023-01-25T16:25:40;22.58;;;9.32;;
75680;SDS011;64294;49.176;16.626;2023-01-25T16:28:14;26.05;;;10.27;;
75680;SDS011;64294;49.176;16.626;2023-01-25T16:30:40;25.50;;;10.00;;
75680;SDS011;64294;49.176;16.626;2023-01-25T16:33:05;22.63;;;9.05;;
75680;SDS011;64294;49.176;16.626;2023-01-25T16:35:31;21.90;;;9.70;;
75680;SDS011;64294;49.176;16.626;2023-01-25T16:37:56;21.88;;;10.20;;
75680;SDS011;64294;49.176;16.626;2023-01-25T16:40:26;28.90;;;10.07;;
75680;SDS011;64294;49.176;16.626;2023-01-25T16:43:00;23.77;;;9.82;;